sensor_id;sensor_type;location;lat;lon;timestamp;P1;durP1;ratioP1;P2;durP2;ratioP2
68225;SDS011;55045;49.410;11.030;2023-02-08T00:02:40;67.50;;;33.45;;
68225;SDS011;55045;49.410;11.030;2023-02-08T00:10:25;56.97;;;28.98;;
68225;SDS011;55045;49.410;11.030;2023-02-08T00:13:29;74.82;;;32.75;;
68225;SDS011;55045;49.410;11.030;2023-02-08T00:16:33;56.22;;;30.17;;
68225;SDS011;55045;49.410;11.030;2023-02-08T00:19:36;61.40;;;29.13;;
68225;SDS011;55045;49.410;11.030;2023-02-08T00:22:39;48.53;;;27.45;;
68225;SDS011;55045;49.410;11.030;2023-02-08T00:25:43;54.65;;;28.38;;
68225;SDS011;55045;49.410;11.030;2023-02-08T00:28:46;57.65;;;29.13;;
68225;SDS011;55045;49.410;11.030;2023-02-08T00:41:37;51.15;;;26.10;;
68225;SDS011;55045;49.410;11.030;2023-02-08T00:44:40;58.28;;;29.45;;
68225;SDS011;55045;49.410;11.030;2023-02-08T00:47:43;51.85;;;28.75;;
68225;SDS011;55045;49.410;11.030;2023-02-08T00:56:02;52.30;;;27.83;;
68225;SDS011;55045;49.410;11.030;2023-02-08T01:04:33;49.75;;;27.58;;
68225;SDS011;55045;49.410;11.030;2023-02-08T01:07:36;50.15;;;26.98;;
68225;SDS011;55045;49.410;11.030;2023-02-08T01:10:40;49.92;;;27.77;;
68225;SDS011;55045;49.410;11.030;2023-02-08T01:13:46;50.67;;;27.42;;
68225;SDS011;55045;49.410;11.030;2023-02-08T01:16:50;50.20;;;25.70;;
68225;SDS011;55045;49.410;11.030;2023-02-08T01:24:43;45.83;;;25.55;;
68225;SDS011;55045;49.410;11.030;2023-02-08T01:33:17;51.58;;;28.13;;
68225;SDS011;55045;49.410;11.030;2023-02-08T01:36:28;51.58;;;28.00;;
68225;SDS011;55045;49.410;11.030;2023-02-08T01:57:39;47.50;;;26.33;;
68225;SDS011;55045;49.410;11.030;2023-02-08T02:00:44;46.30;;;24.70;;
68225;SDS011;55045;49.410;11.030;2023-02-08T02:03:49;45.88;;;26.20;;
68225;SDS011;55045;49.410;11.030;2023-02-08T02:06:53;49.03;;;26.77;;
68225;SDS011;55045;49.410;11.030;2023-02-08T02:10:04;52.60;;;28.23;;
68225;SDS011;55045;49.410;11.030;2023-02-08T02:13:11;59.13;;;29.85;;
68225;SDS011;55045;49.410;11.030;2023-02-08T02:16:18;51.08;;;27.27;;
68225;SDS011;55045;49.410;11.030;2023-02-08T02:19:24;53.10;;;27.27;;
68225;SDS011;55045;49.410;11.030;2023-02-08T02:26:26;54.30;;;27.40;;
68225;SDS011;55045;49.410;11.030;2023-02-08T02:33:35;53.13;;;27.13;;
68225;SDS011;55045;49.410;11.030;2023-02-08T02:36:51;50.63;;;26.43;;
68225;SDS011;55045;49.410;11.030;2023-02-08T02:40:09;51.08;;;26.70;;
68225;SDS011;55045;49.410;11.030;2023-02-08T02:43:36;48.33;;;26.55;;
68225;SDS011;55045;49.410;11.030;2023-02-08T02:47:04;53.70;;;27.45;;
68225;SDS011;55045;49.410;11.030;2023-02-08T02:50:17;52.80;;;27.60;;
68225;SDS011;55045;49.410;11.030;2023-02-08T02:53:27;57.50;;;28.60;;
68225;SDS011;55045;49.410;11.030;2023-02-08T03:05:35;50.20;;;26.70;;
68225;SDS011;55045;49.410;11.030;2023-02-08T03:14:15;47.47;;;25.38;;
68225;SDS011;55045;49.410;11.030;2023-02-08T03:18:05;49.03;;;26.73;;
68225;SDS011;55045;49.410;11.030;2023-02-08T03:21:34;42.63;;;23.95;;
68225;SDS011;55045;49.410;11.030;2023-02-08T03:24:45;48.58;;;26.17;;
68225;SDS011;55045;49.410;11.030;2023-02-08T03:27:57;45.15;;;24.30;;
68225;SDS011;55045;49.410;11.030;2023-02-08T03:31:09;44.58;;;24.92;;
68225;SDS011;55045;49.410;11.030;2023-02-08T03:38:07;48.08;;;26.48;;
68225;SDS011;55045;49.410;11.030;2023-02-08T03:41:13;50.37;;;26.17;;
68225;SDS011;55045;49.410;11.030;2023-02-08T03:47:26;47.60;;;26.60;;
68225;SDS011;55045;49.410;11.030;2023-02-08T03:50:33;43.95;;;24.88;;
68225;SDS011;55045;49.410;11.030;2023-02-08T03:53:42;44.95;;;25.80;;
68225;SDS011;55045;49.410;11.030;2023-02-08T03:59:55;45.92;;;27.95;;
68225;SDS011;55045;49.410;11.030;2023-02-08T04:03:14;45.13;;;28.05;;
68225;SDS011;55045;49.410;11.030;2023-02-08T04:06:21;48.63;;;29.25;;
68225;SDS011;55045;49.410;11.030;2023-02-08T04:14:21;47.13;;;26.65;;
68225;SDS011;55045;49.410;11.030;2023-02-08T04:17:27;43.90;;;25.90;;
68225;SDS011;55045;49.410;11.030;2023-02-08T04:25:49;41.83;;;25.35;;
68225;SDS011;55045;49.410;11.030;2023-02-08T04:28:53;44.35;;;26.23;;
68225;SDS011;55045;49.410;11.030;2023-02-08T04:34:22;183.18;;;58.70;;
68225;SDS011;55045;49.410;11.030;2023-02-08T04:37:25;121.40;;;46.72;;
68225;SDS011;55045;49.410;11.030;2023-02-08T04:40:28;81.25;;;35.08;;
68225;SDS011;55045;49.410;11.030;2023-02-08T04:43:32;209.70;;;68.20;;
68225;SDS011;55045;49.410;11.030;2023-02-08T04:46:35;103.53;;;41.22;;
68225;SDS011;55045;49.410;11.030;2023-02-08T04:49:39;95.50;;;37.95;;
68225;SDS011;55045;49.410;11.030;2023-02-08T04:52:43;93.72;;;38.88;;
68225;SDS011;55045;49.410;11.030;2023-02-08T04:55:46;79.88;;;36.38;;
68225;SDS011;55045;49.410;11.030;2023-02-08T04:58:49;67.65;;;32.42;;
68225;SDS011;55045;49.410;11.030;2023-02-08T05:01:53;52.92;;;24.95;;
68225;SDS011;55045;49.410;11.030;2023-02-08T05:04:58;42.92;;;23.10;;
68225;SDS011;55045;49.410;11.030;2023-02-08T05:08:01;43.10;;;21.92;;
68225;SDS011;55045;49.410;11.030;2023-02-08T05:11:05;40.63;;;21.83;;
68225;SDS011;55045;49.410;11.030;2023-02-08T05:14:09;42.38;;;22.40;;
68225;SDS011;55045;49.410;11.030;2023-02-08T05:17:12;39.90;;;20.90;;
68225;SDS011;55045;49.410;11.030;2023-02-08T05:20:16;40.75;;;23.10;;
68225;SDS011;55045;49.410;11.030;2023-02-08T05:23:20;40.28;;;23.52;;
68225;SDS011;55045;49.410;11.030;2023-02-08T05:26:24;41.50;;;23.85;;
68225;SDS011;55045;49.410;11.030;2023-02-08T05:29:27;43.88;;;23.48;;
68225;SDS011;55045;49.410;11.030;2023-02-08T05:32:30;43.42;;;23.83;;
68225;SDS011;55045;49.410;11.030;2023-02-08T05:35:35;42.30;;;24.02;;
68225;SDS011;55045;49.410;11.030;2023-02-08T05:38:38;46.13;;;24.55;;
68225;SDS011;55045;49.410;11.030;2023-02-08T05:41:42;48.13;;;26.33;;
68225;SDS011;55045;49.410;11.030;2023-02-08T05:44:45;49.30;;;26.40;;
68225;SDS011;55045;49.410;11.030;2023-02-08T05:47:48;47.92;;;26.02;;
68225;SDS011;55045;49.410;11.030;2023-02-08T05:50:53;48.35;;;26.25;;
68225;SDS011;55045;49.410;11.030;2023-02-08T05:53:57;49.15;;;25.15;;
68225;SDS011;55045;49.410;11.030;2023-02-08T05:57:00;57.33;;;26.50;;
68225;SDS011;55045;49.410;11.030;2023-02-08T06:00:04;46.67;;;26.25;;
68225;SDS011;55045;49.410;11.030;2023-02-08T06:03:17;49.38;;;26.35;;
68225;SDS011;55045;49.410;11.030;2023-02-08T06:06:21;47.85;;;27.17;;
68225;SDS011;55045;49.410;11.030;2023-02-08T06:09:25;51.10;;;28.55;;
68225;SDS011;55045;49.410;11.030;2023-02-08T06:12:28;64.00;;;33.88;;
68225;SDS011;55045;49.410;11.030;2023-02-08T06:15:31;61.22;;;31.63;;
68225;SDS011;55045;49.410;11.030;2023-02-08T06:18:35;66.97;;;34.05;;
68225;SDS011;55045;49.410;11.030;2023-02-08T06:21:41;53.33;;;30.17;;
68225;SDS011;55045;49.410;11.030;2023-02-08T06:24:44;55.78;;;29.60;;
68225;SDS011;55045;49.410;11.030;2023-02-08T06:27:49;49.97;;;28.00;;
68225;SDS011;55045;49.410;11.030;2023-02-08T06:30:53;50.92;;;27.52;;
68225;SDS011;55045;49.410;11.030;2023-02-08T06:33:56;47.90;;;26.33;;
68225;SDS011;55045;49.410;11.030;2023-02-08T06:37:00;44.65;;;25.13;;
68225;SDS011;55045;49.410;11.030;2023-02-08T06:40:06;45.22;;;24.33;;
68225;SDS011;55045;49.410;11.030;2023-02-08T06:43:11;44.17;;;23.60;;
68225;SDS011;55045;49.410;11.030;2023-02-08T06:46:14;45.15;;;24.40;;
68225;SDS011;55045;49.410;11.030;2023-02-08T06:49:18;51.08;;;26.10;;
68225;SDS011;55045;49.410;11.030;2023-02-08T06:52:23;48.38;;;25.60;;
68225;SDS011;55045;49.410;11.030;2023-02-08T06:55:26;46.55;;;26.52;;
68225;SDS011;55045;49.410;11.030;2023-02-08T06:58:29;47.67;;;26.63;;
68225;SDS011;55045;49.410;11.030;2023-02-08T07:01:33;45.00;;;25.00;;
68225;SDS011;55045;49.410;11.030;2023-02-08T07:04:36;42.47;;;23.65;;
68225;SDS011;55045;49.410;11.030;2023-02-08T07:07:41;41.50;;;23.40;;
68225;SDS011;55045;49.410;11.030;2023-02-08T07:10:47;43.42;;;22.98;;
68225;SDS011;55045;49.410;11.030;2023-02-08T07:13:50;41.83;;;22.08;;
68225;SDS011;55045;49.410;11.030;2023-02-08T07:16:55;47.85;;;23.73;;
68225;SDS011;55045;49.410;11.030;2023-02-08T07:19:58;52.47;;;26.42;;
68225;SDS011;55045;49.410;11.030;2023-02-08T07:23:03;47.78;;;24.63;;
68225;SDS011;55045;49.410;11.030;2023-02-08T07:26:07;54.85;;;26.15;;
68225;SDS011;55045;49.410;11.030;2023-02-08T07:29:12;60.25;;;28.73;;
68225;SDS011;55045;49.410;11.030;2023-02-08T07:32:15;62.70;;;31.88;;
68225;SDS011;55045;49.410;11.030;2023-02-08T07:35:18;56.33;;;28.20;;
68225;SDS011;55045;49.410;11.030;2023-02-08T07:38:23;48.92;;;24.85;;
68225;SDS011;55045;49.410;11.030;2023-02-08T07:41:27;45.75;;;24.77;;
68225;SDS011;55045;49.410;11.030;2023-02-08T07:44:30;43.78;;;24.40;;
68225;SDS011;55045;49.410;11.030;2023-02-08T07:47:33;43.90;;;23.92;;
68225;SDS011;55045;49.410;11.030;2023-02-08T07:50:36;45.47;;;25.58;;
68225;SDS011;55045;49.410;11.030;2023-02-08T07:53:41;47.75;;;25.85;;
68225;SDS011;55045;49.410;11.030;2023-02-08T07:56:45;44.53;;;23.65;;
68225;SDS011;55045;49.410;11.030;2023-02-08T07:59:48;48.08;;;24.80;;
68225;SDS011;55045;49.410;11.030;2023-02-08T08:02:54;48.33;;;24.10;;
68225;SDS011;55045;49.410;11.030;2023-02-08T08:05:58;41.60;;;24.15;;
68225;SDS011;55045;49.410;11.030;2023-02-08T08:09:04;45.20;;;23.38;;
68225;SDS011;55045;49.410;11.030;2023-02-08T08:12:08;45.78;;;23.02;;
68225;SDS011;55045;49.410;11.030;2023-02-08T08:15:11;41.40;;;21.63;;
68225;SDS011;55045;49.410;11.030;2023-02-08T08:18:14;45.05;;;23.95;;
68225;SDS011;55045;49.410;11.030;2023-02-08T08:21:17;39.97;;;20.17;;
68225;SDS011;55045;49.410;11.030;2023-02-08T08:24:22;42.70;;;20.60;;
68225;SDS011;55045;49.410;11.030;2023-02-08T08:27:26;38.83;;;19.02;;
68225;SDS011;55045;49.410;11.030;2023-02-08T08:30:29;43.85;;;23.25;;
68225;SDS011;55045;49.410;11.030;2023-02-08T08:33:33;43.58;;;20.45;;
68225;SDS011;55045;49.410;11.030;2023-02-08T08:36:36;44.15;;;21.30;;
68225;SDS011;55045;49.410;11.030;2023-02-08T08:39:41;35.63;;;17.90;;
68225;SDS011;55045;49.410;11.030;2023-02-08T08:42:44;37.25;;;19.63;;
68225;SDS011;55045;49.410;11.030;2023-02-08T08:45:47;37.00;;;18.70;;
68225;SDS011;55045;49.410;11.030;2023-02-08T08:48:53;35.45;;;17.58;;
68225;SDS011;55045;49.410;11.030;2023-02-08T08:51:56;37.75;;;17.92;;
68225;SDS011;55045;49.410;11.030;2023-02-08T08:55:01;39.67;;;19.85;;
68225;SDS011;55045;49.410;11.030;2023-02-08T08:58:04;38.05;;;19.55;;
68225;SDS011;55045;49.410;11.030;2023-02-08T09:01:07;45.25;;;21.20;;
68225;SDS011;55045;49.410;11.030;2023-02-08T09:04:11;38.03;;;18.40;;
68225;SDS011;55045;49.410;11.030;2023-02-08T09:07:14;39.50;;;18.13;;
68225;SDS011;55045;49.410;11.030;2023-02-08T09:10:19;37.92;;;18.25;;
68225;SDS011;55045;49.410;11.030;2023-02-08T09:13:22;35.53;;;18.83;;
68225;SDS011;55045;49.410;11.030;2023-02-08T09:16:25;33.95;;;18.73;;
68225;SDS011;55045;49.410;11.030;2023-02-08T09:19:28;40.10;;;20.50;;
68225;SDS011;55045;49.410;11.030;2023-02-08T09:22:32;36.63;;;18.35;;
68225;SDS011;55045;49.410;11.030;2023-02-08T09:25:36;36.38;;;18.23;;
68225;SDS011;55045;49.410;11.030;2023-02-08T09:28:40;40.42;;;16.60;;
68225;SDS011;55045;49.410;11.030;2023-02-08T09:31:44;35.72;;;17.73;;
68225;SDS011;55045;49.410;11.030;2023-02-08T09:34:47;39.33;;;18.38;;
68225;SDS011;55045;49.410;11.030;2023-02-08T09:37:51;39.45;;;19.75;;
68225;SDS011;55045;49.410;11.030;2023-02-08T09:41:00;42.13;;;18.77;;
68225;SDS011;55045;49.410;11.030;2023-02-08T09:44:13;42.17;;;17.42;;
68225;SDS011;55045;49.410;11.030;2023-02-08T09:47:23;41.35;;;18.48;;
68225;SDS011;55045;49.410;11.030;2023-02-08T09:50:33;36.45;;;17.30;;
68225;SDS011;55045;49.410;11.030;2023-02-08T09:53:40;53.65;;;24.40;;
68225;SDS011;55045;49.410;11.030;2023-02-08T09:57:04;36.88;;;17.92;;
68225;SDS011;55045;49.410;11.030;2023-02-08T10:00:12;35.38;;;16.77;;
68225;SDS011;55045;49.410;11.030;2023-02-08T10:03:30;34.22;;;18.95;;
68225;SDS011;55045;49.410;11.030;2023-02-08T10:06:37;32.08;;;16.63;;
68225;SDS011;55045;49.410;11.030;2023-02-08T10:09:40;36.58;;;18.67;;
68225;SDS011;55045;49.410;11.030;2023-02-08T10:12:46;34.75;;;16.25;;
68225;SDS011;55045;49.410;11.030;2023-02-08T10:15:59;36.58;;;17.67;;
68225;SDS011;55045;49.410;11.030;2023-02-08T10:19:13;38.08;;;19.30;;
68225;SDS011;55045;49.410;11.030;2023-02-08T10:22:32;35.35;;;16.30;;
68225;SDS011;55045;49.410;11.030;2023-02-08T10:34:28;28.25;;;13.65;;
68225;SDS011;55045;49.410;11.030;2023-02-08T10:37:38;24.73;;;12.77;;
68225;SDS011;55045;49.410;11.030;2023-02-08T10:40:43;27.15;;;13.40;;
68225;SDS011;55045;49.410;11.030;2023-02-08T10:43:50;28.75;;;13.43;;
68225;SDS011;55045;49.410;11.030;2023-02-08T10:47:06;24.45;;;13.60;;
68225;SDS011;55045;49.410;11.030;2023-02-08T10:50:17;26.48;;;11.85;;
68225;SDS011;55045;49.410;11.030;2023-02-08T10:58:09;18.80;;;9.07;;
68225;SDS011;55045;49.410;11.030;2023-02-08T11:01:18;20.20;;;10.30;;
68225;SDS011;55045;49.410;11.030;2023-02-08T11:24:36;19.05;;;8.70;;
68225;SDS011;55045;49.410;11.030;2023-02-08T11:27:42;18.35;;;9.20;;
68225;SDS011;55045;49.410;11.030;2023-02-08T11:35:18;25.25;;;10.70;;
68225;SDS011;55045;49.410;11.030;2023-02-08T11:38:23;20.33;;;10.82;;
68225;SDS011;55045;49.410;11.030;2023-02-08T11:45:52;17.60;;;10.35;;
68225;SDS011;55045;49.410;11.030;2023-02-08T11:48:57;22.05;;;11.15;;
68225;SDS011;55045;49.410;11.030;2023-02-08T11:52:17;17.90;;;9.13;;
68225;SDS011;55045;49.410;11.030;2023-02-08T11:55:23;18.88;;;9.35;;
68225;SDS011;55045;49.410;11.030;2023-02-08T11:58:33;19.13;;;10.32;;
68225;SDS011;55045;49.410;11.030;2023-02-08T12:01:40;19.15;;;10.02;;
68225;SDS011;55045;49.410;11.030;2023-02-08T12:04:44;21.45;;;11.63;;
68225;SDS011;55045;49.410;11.030;2023-02-08T12:08:12;18.85;;;10.65;;
68225;SDS011;55045;49.410;11.030;2023-02-08T12:11:43;17.80;;;9.15;;
68225;SDS011;55045;49.410;11.030;2023-02-08T12:14:50;18.55;;;9.90;;
68225;SDS011;55045;49.410;11.030;2023-02-08T12:27:29;18.13;;;10.10;;
68225;SDS011;55045;49.410;11.030;2023-02-08T12:30:46;16.05;;;8.60;;
68225;SDS011;55045;49.410;11.030;2023-02-08T12:33:59;14.63;;;8.10;;
68225;SDS011;55045;49.410;11.030;2023-02-08T12:37:12;18.23;;;8.18;;
68225;SDS011;55045;49.410;11.030;2023-02-08T12:40:51;17.35;;;8.68;;
68225;SDS011;55045;49.410;11.030;2023-02-08T12:48:55;12.83;;;7.00;;
68225;SDS011;55045;49.410;11.030;2023-02-08T12:52:14;13.02;;;8.18;;
68225;SDS011;55045;49.410;11.030;2023-02-08T12:55:33;16.02;;;8.25;;
68225;SDS011;55045;49.410;11.030;2023-02-08T12:58:39;16.02;;;8.32;;
68225;SDS011;55045;49.410;11.030;2023-02-08T13:02:15;15.23;;;7.70;;
68225;SDS011;55045;49.410;11.030;2023-02-08T13:05:32;16.20;;;7.90;;
68225;SDS011;55045;49.410;11.030;2023-02-08T13:08:40;14.07;;;7.07;;
68225;SDS011;55045;49.410;11.030;2023-02-08T13:11:56;14.18;;;8.00;;
68225;SDS011;55045;49.410;11.030;2023-02-08T13:15:06;12.98;;;7.43;;
68225;SDS011;55045;49.410;11.030;2023-02-08T13:23:33;13.85;;;8.18;;
68225;SDS011;55045;49.410;11.030;2023-02-08T13:26:53;17.58;;;8.73;;
68225;SDS011;55045;49.410;11.030;2023-02-08T13:29:56;18.65;;;9.13;;
68225;SDS011;55045;49.410;11.030;2023-02-08T13:32:59;16.38;;;10.18;;
68225;SDS011;55045;49.410;11.030;2023-02-08T13:49:03;18.23;;;8.85;;
68225;SDS011;55045;49.410;11.030;2023-02-08T13:52:11;19.75;;;10.38;;
68225;SDS011;55045;49.410;11.030;2023-02-08T13:55:55;17.55;;;9.52;;
68225;SDS011;55045;49.410;11.030;2023-02-08T13:59:00;20.10;;;10.02;;
68225;SDS011;55045;49.410;11.030;2023-02-08T14:07:38;17.35;;;10.15;;
68225;SDS011;55045;49.410;11.030;2023-02-08T14:10:45;19.42;;;9.55;;
68225;SDS011;55045;49.410;11.030;2023-02-08T14:14:02;18.83;;;8.90;;
68225;SDS011;55045;49.410;11.030;2023-02-08T14:17:18;16.58;;;9.32;;
68225;SDS011;55045;49.410;11.030;2023-02-08T14:30:33;16.20;;;8.90;;
68225;SDS011;55045;49.410;11.030;2023-02-08T14:33:40;15.88;;;8.10;;
68225;SDS011;55045;49.410;11.030;2023-02-08T14:36:45;16.85;;;9.23;;
68225;SDS011;55045;49.410;11.030;2023-02-08T14:39:49;14.98;;;8.80;;
68225;SDS011;55045;49.410;11.030;2023-02-08T14:43:27;25.27;;;11.23;;
68225;SDS011;55045;49.410;11.030;2023-02-08T14:46:42;17.20;;;8.57;;
68225;SDS011;55045;49.410;11.030;2023-02-08T14:49:49;18.15;;;9.70;;
68225;SDS011;55045;49.410;11.030;2023-02-08T14:52:59;15.05;;;7.55;;
68225;SDS011;55045;49.410;11.030;2023-02-08T14:56:12;18.85;;;9.02;;
68225;SDS011;55045;49.410;11.030;2023-02-08T14:59:19;17.95;;;9.18;;
68225;SDS011;55045;49.410;11.030;2023-02-08T15:02:28;14.98;;;7.88;;
68225;SDS011;55045;49.410;11.030;2023-02-08T15:05:38;18.90;;;9.90;;
68225;SDS011;55045;49.410;11.030;2023-02-08T15:08:48;19.88;;;8.65;;
68225;SDS011;55045;49.410;11.030;2023-02-08T15:29:55;23.55;;;13.75;;
68225;SDS011;55045;49.410;11.030;2023-02-08T15:32:59;25.20;;;12.05;;
68225;SDS011;55045;49.410;11.030;2023-02-08T15:36:13;23.85;;;12.65;;
68225;SDS011;55045;49.410;11.030;2023-02-08T15:39:24;24.20;;;12.00;;
68225;SDS011;55045;49.410;11.030;2023-02-08T15:47:59;25.92;;;13.15;;
68225;SDS011;55045;49.410;11.030;2023-02-08T15:51:04;24.90;;;13.30;;
68225;SDS011;55045;49.410;11.030;2023-02-08T15:54:10;27.40;;;14.95;;
68225;SDS011;55045;49.410;11.030;2023-02-08T15:57:21;29.17;;;15.18;;
68225;SDS011;55045;49.410;11.030;2023-02-08T16:00:34;29.02;;;15.45;;
68225;SDS011;55045;49.410;11.030;2023-02-08T16:03:39;28.52;;;14.32;;
68225;SDS011;55045;49.410;11.030;2023-02-08T16:06:59;29.67;;;13.75;;
68225;SDS011;55045;49.410;11.030;2023-02-08T16:10:06;28.42;;;14.05;;
68225;SDS011;55045;49.410;11.030;2023-02-08T16:13:23;28.00;;;14.43;;
68225;SDS011;55045;49.410;11.030;2023-02-08T16:16:35;27.13;;;12.95;;
68225;SDS011;55045;49.410;11.030;2023-02-08T16:19:40;21.98;;;13.30;;
68225;SDS011;55045;49.410;11.030;2023-02-08T16:22:54;22.52;;;12.88;;
68225;SDS011;55045;49.410;11.030;2023-02-08T16:26:08;24.55;;;12.38;;
68225;SDS011;55045;49.410;11.030;2023-02-08T16:29:19;22.25;;;12.95;;
68225;SDS011;55045;49.410;11.030;2023-02-08T16:34:21;29.95;;;13.38;;
68225;SDS011;55045;49.410;11.030;2023-02-08T16:37:26;26.85;;;14.07;;
68225;SDS011;55045;49.410;11.030;2023-02-08T16:40:39;29.42;;;15.20;;
68225;SDS011;55045;49.410;11.030;2023-02-08T16:43:50;29.77;;;12.30;;
68225;SDS011;55045;49.410;11.030;2023-02-08T16:47:23;26.15;;;13.88;;
68225;SDS011;55045;49.410;11.030;2023-02-08T16:50:32;26.48;;;13.20;;
68225;SDS011;55045;49.410;11.030;2023-02-08T16:53:35;23.25;;;13.68;;
68225;SDS011;55045;49.410;11.030;2023-02-08T16:56:43;22.05;;;11.40;;
68225;SDS011;55045;49.410;11.030;2023-02-08T16:59:59;27.20;;;14.00;;
68225;SDS011;55045;49.410;11.030;2023-02-08T17:03:03;28.88;;;15.25;;
68225;SDS011;55045;49.410;11.030;2023-02-08T17:06:11;25.27;;;14.38;;
68225;SDS011;55045;49.410;11.030;2023-02-08T17:09:26;29.85;;;15.32;;
68225;SDS011;55045;49.410;11.030;2023-02-08T17:20:06;32.85;;;18.30;;
68225;SDS011;55045;49.410;11.030;2023-02-08T17:28:46;31.20;;;15.25;;
68225;SDS011;55045;49.410;11.030;2023-02-08T17:31:51;103.53;;;33.67;;
68225;SDS011;55045;49.410;11.030;2023-02-08T17:34:55;41.10;;;25.35;;
68225;SDS011;55045;49.410;11.030;2023-02-08T17:38:01;28.83;;;18.85;;
68225;SDS011;55045;49.410;11.030;2023-02-08T17:49:33;80.25;;;40.28;;
68225;SDS011;55045;49.410;11.030;2023-02-08T17:52:37;43.53;;;26.88;;
68225;SDS011;55045;49.410;11.030;2023-02-08T17:55:47;80.30;;;40.05;;
68225;SDS011;55045;49.410;11.030;2023-02-08T17:58:51;80.00;;;39.85;;
68225;SDS011;55045;49.410;11.030;2023-02-08T18:02:03;34.92;;;20.27;;
68225;SDS011;55045;49.410;11.030;2023-02-08T18:05:07;40.78;;;19.88;;
68225;SDS011;55045;49.410;11.030;2023-02-08T18:08:10;42.63;;;21.33;;
68225;SDS011;55045;49.410;11.030;2023-02-08T18:11:15;36.67;;;17.70;;
68225;SDS011;55045;49.410;11.030;2023-02-08T18:14:21;34.08;;;16.17;;
68225;SDS011;55045;49.410;11.030;2023-02-08T18:17:25;35.00;;;19.00;;
68225;SDS011;55045;49.410;11.030;2023-02-08T18:20:29;32.35;;;16.73;;
68225;SDS011;55045;49.410;11.030;2023-02-08T18:23:38;32.90;;;16.95;;
68225;SDS011;55045;49.410;11.030;2023-02-08T18:26:42;36.72;;;16.27;;
68225;SDS011;55045;49.410;11.030;2023-02-08T18:29:46;36.50;;;22.80;;
68225;SDS011;55045;49.410;11.030;2023-02-08T18:38:15;38.33;;;21.83;;
68225;SDS011;55045;49.410;11.030;2023-02-08T18:41:20;49.95;;;26.33;;
68225;SDS011;55045;49.410;11.030;2023-02-08T18:55:08;32.13;;;16.02;;
68225;SDS011;55045;49.410;11.030;2023-02-08T19:01:41;35.78;;;17.00;;
68225;SDS011;55045;49.410;11.030;2023-02-08T19:04:44;39.88;;;17.92;;
68225;SDS011;55045;49.410;11.030;2023-02-08T19:07:58;35.78;;;17.30;;
68225;SDS011;55045;49.410;11.030;2023-02-08T19:11:03;33.40;;;16.80;;
68225;SDS011;55045;49.410;11.030;2023-02-08T19:19:32;37.15;;;18.33;;
68225;SDS011;55045;49.410;11.030;2023-02-08T19:22:35;31.20;;;14.90;;
68225;SDS011;55045;49.410;11.030;2023-02-08T19:25:38;33.67;;;16.85;;
68225;SDS011;55045;49.410;11.030;2023-02-08T19:28:43;36.03;;;17.13;;
68225;SDS011;55045;49.410;11.030;2023-02-08T19:37:12;35.35;;;17.00;;
68225;SDS011;55045;49.410;11.030;2023-02-08T19:55:31;39.87;;;18.53;;
68225;SDS011;55045;49.410;11.030;2023-02-08T19:58:34;33.80;;;16.95;;
68225;SDS011;55045;49.410;11.030;2023-02-08T20:01:47;36.00;;;15.95;;
68225;SDS011;55045;49.410;11.030;2023-02-08T20:04:51;37.28;;;17.98;;
68225;SDS011;55045;49.410;11.030;2023-02-08T20:07:54;37.10;;;17.25;;
68225;SDS011;55045;49.410;11.030;2023-02-08T20:11:06;33.30;;;17.00;;
68225;SDS011;55045;49.410;11.030;2023-02-08T20:14:18;35.55;;;17.25;;
68225;SDS011;55045;49.410;11.030;2023-02-08T20:17:21;34.70;;;16.85;;
68225;SDS011;55045;49.410;11.030;2023-02-08T20:20:25;34.47;;;17.98;;
68225;SDS011;55045;49.410;11.030;2023-02-08T20:23:28;37.03;;;18.02;;
68225;SDS011;55045;49.410;11.030;2023-02-08T20:26:51;37.15;;;17.58;;
68225;SDS011;55045;49.410;11.030;2023-02-08T20:29:54;35.95;;;18.10;;
68225;SDS011;55045;49.410;11.030;2023-02-08T20:32:58;37.40;;;18.58;;
68225;SDS011;55045;49.410;11.030;2023-02-08T20:36:05;31.85;;;16.58;;
68225;SDS011;55045;49.410;11.030;2023-02-08T20:39:11;37.03;;;18.38;;
68225;SDS011;55045;49.410;11.030;2023-02-08T20:42:17;40.30;;;18.73;;
68225;SDS011;55045;49.410;11.030;2023-02-08T20:45:20;39.80;;;19.00;;
68225;SDS011;55045;49.410;11.030;2023-02-08T20:48:33;37.90;;;19.27;;
68225;SDS011;55045;49.410;11.030;2023-02-08T20:57:02;36.58;;;17.65;;
68225;SDS011;55045;49.410;11.030;2023-02-08T21:04:08;34.47;;;17.42;;
68225;SDS011;55045;49.410;11.030;2023-02-08T21:12:39;40.63;;;18.50;;
68225;SDS011;55045;49.410;11.030;2023-02-08T21:19:38;41.60;;;18.77;;
68225;SDS011;55045;49.410;11.030;2023-02-08T21:22:43;37.28;;;18.85;;
68225;SDS011;55045;49.410;11.030;2023-02-08T21:25:46;46.03;;;19.20;;
68225;SDS011;55045;49.410;11.030;2023-02-08T21:28:50;63.70;;;27.83;;
68225;SDS011;55045;49.410;11.030;2023-02-08T21:31:55;42.08;;;20.90;;
68225;SDS011;55045;49.410;11.030;2023-02-08T21:35:00;37.08;;;19.30;;
68225;SDS011;55045;49.410;11.030;2023-02-08T21:38:04;38.97;;;21.30;;
68225;SDS011;55045;49.410;11.030;2023-02-08T21:52:15;39.25;;;20.60;;
68225;SDS011;55045;49.410;11.030;2023-02-08T21:55:35;37.97;;;18.88;;
68225;SDS011;55045;49.410;11.030;2023-02-08T21:58:38;33.45;;;17.05;;
68225;SDS011;55045;49.410;11.030;2023-02-08T22:01:42;34.38;;;15.88;;
68225;SDS011;55045;49.410;11.030;2023-02-08T22:04:45;33.75;;;16.02;;
68225;SDS011;55045;49.410;11.030;2023-02-08T22:08:09;35.47;;;17.00;;
68225;SDS011;55045;49.410;11.030;2023-02-08T22:11:14;52.22;;;21.63;;
68225;SDS011;55045;49.410;11.030;2023-02-08T22:14:21;44.42;;;20.35;;
68225;SDS011;55045;49.410;11.030;2023-02-08T22:17:25;49.60;;;20.55;;
68225;SDS011;55045;49.410;11.030;2023-02-08T22:25:53;36.30;;;18.85;;
68225;SDS011;55045;49.410;11.030;2023-02-08T22:44:25;61.50;;;24.45;;
68225;SDS011;55045;49.410;11.030;2023-02-08T22:47:28;52.63;;;24.05;;
68225;SDS011;55045;49.410;11.030;2023-02-08T22:50:31;53.88;;;24.45;;
68225;SDS011;55045;49.410;11.030;2023-02-08T22:53:37;45.58;;;22.38;;
68225;SDS011;55045;49.410;11.030;2023-02-08T22:56:40;48.20;;;20.70;;
68225;SDS011;55045;49.410;11.030;2023-02-08T22:59:51;33.28;;;17.00;;
68225;SDS011;55045;49.410;11.030;2023-02-08T23:02:55;40.97;;;16.75;;
68225;SDS011;55045;49.410;11.030;2023-02-08T23:05:59;30.92;;;14.85;;
68225;SDS011;55045;49.410;11.030;2023-02-08T23:09:45;40.28;;;16.35;;
68225;SDS011;55045;49.410;11.030;2023-02-08T23:12:49;32.85;;;15.77;;
68225;SDS011;55045;49.410;11.030;2023-02-08T23:36:40;35.15;;;16.15;;
68225;SDS011;55045;49.410;11.030;2023-02-08T23:39:44;34.65;;;15.80;;
68225;SDS011;55045;49.410;11.030;2023-02-08T23:42:47;37.90;;;19.75;;
68225;SDS011;55045;49.410;11.030;2023-02-08T23:46:04;31.80;;;18.33;;
68225;SDS011;55045;49.410;11.030;2023-02-08T23:49:08;36.15;;;17.10;;
68225;SDS011;55045;49.410;11.030;2023-02-08T23:52:12;35.13;;;17.27;;
